PDT,Max TemperatureF,Mean TemperatureF,Min TemperatureF,Max Dew PointF,MeanDew PointF,Min DewpointF,Max Humidity, Mean Humidity, Min Humidity, Max Sea Level PressureIn, Mean Sea Level PressureIn, Min Sea Level PressureIn, Max VisibilityMiles, Mean VisibilityMiles, Min VisibilityMiles, Max Wind SpeedMPH, Mean Wind SpeedMPH, Max Gust SpeedMPH,PrecipitationIn, CloudCover, Events, WindDirDegrees
2012-10-1,82,64,46,55,48,37,100,65,20,30.01,29.95,29.90,10,8,3,17,4,21,0.00,1,,318
2012-10-2,77,62,48,55,48,41,87,63,32,29.90,29.87,29.81,10,9,5,13,2,,0.00,1,,312
2012-10-3,,,,,,,,,,,,,,,,,,,0.00,,,-1
2012-10-4,62,60,57,55,54,54,88,84,72,30.17,30.15,30.13,7,5,5,8,5,,0.00,6,,229
2012-10-5,66,60,55,57,55,52,94,82,68,30.18,30.14,30.09,10,8,3,9,3,,0.00,5,,326
2012-10-6,68,58,48,54,50,46,100,78,49,30.09,30.05,30.01,10,10,4,15,4,17,0.00,1,,349
2012-10-7,60,53,46,55,51,45,100,89,77,30.04,30.01,29.99,10,10,7,12,3,16,0.00,2,,334
2012-10-8,64,54,44,55,51,45,100,86,68,30.07,30.04,30.02,10,10,2,8,2,,0.00,2,,278
2012-10-9,64,56,48,55,53,46,100,86,68,30.05,30.01,29.97,10,10,7,10,3,,0.00,3,Rain,341
2012-10-10,60,58,55,55,53,50,94,87,77,29.99,29.97,29.94,10,9,6,13,5,,0.00,8,Rain,332
2012-10-11,57,55,53,54,52,50,100,87,77,29.99,29.95,29.91,10,8,2,10,5,,0.00,8,,306
2012-10-12,62,54,46,54,50,43,100,83,59,30.24,30.12,29.98,10,9,2,9,2,,0.01,7,Rain,320
2012-10-13,66,55,44,57,50,43,100,79,56,30.31,30.25,30.21,10,9,2,18,4,22,0.00,2,,350
2012-10-14,66,60,55,57,56,55,100,93,73,30.24,30.17,30.11,10,5,0,18,8,22,0.00,5,Fog-Rain,343
2012-10-15,66,60,53,61,57,54,100,91,68,30.12,30.06,30.00,10,6,0,22,8,28,0.00,4,Fog,348
2012-10-16,66,58,50,63,58,48,100,92,82,30.02,29.98,29.92,10,6,0,22,14,28,0.00,6,Fog,353
2012-10-17,69,58,48,57,52,45,100,82,49,29.92,29.88,29.83,10,6,2,16,5,,0.00,3,,338
2012-10-18,77,62,48,64,50,28,100,60,17,30.06,29.95,29.85,10,8,3,23,5,31,0.00,2,,188
2012-10-19,62,58,55,63,59,54,100,98,88,30.08,30.02,29.96,10,3,0,17,9,23,0.00,8,Fog-Rain,245
2012-10-20,62,54,46,57,53,45,100,89,72,29.97,29.92,29.87,10,5,0,20,7,25,0.00,6,Fog-Rain,349
2012-10-21,59,52,44,50,46,41,93,78,63,29.98,29.93,29.86,10,9,6,15,5,21,0.02,2,Rain,347
2012-10-22,59,56,53,54,52,48,100,85,72,29.96,29.87,29.75,10,8,1,26,10,38,0.71,5,Rain,226
2012-10-23,59,52,46,50,48,45,100,84,63,30.07,30.03,29.95,10,10,5,15,5,24,0.03,3,Rain,240
2012-10-24,59,54,48,55,52,46,94,87,77,30.21,30.13,30.04,10,9,2,12,5,,0.64,6,Rain,173
2012-10-25,64,58,50,54,51,46,94,80,64,30.25,30.22,30.18,10,10,2,16,6,23,0.01,4,Rain,48
2012-10-26,64,55,46,55,50,39,100,78,52,30.24,30.18,30.12,10,9,1,18,7,20,0.00,1,,355
2012-10-27,68,59,50,57,55,50,100,88,64,30.11,30.04,29.98,10,8,0,21,7,25,0.00,2,Fog,349
2012-10-28,62,55,48,55,54,48,100,97,77,30.06,30.01,29.98,10,4,0,17,4,20,0.00,7,Fog,348
2012-10-29,59,56,53,57,55,54,100,99,94,30.13,30.09,30.06,3,1,0,12,3,,0.00,8,Fog,355
2012-10-30,59,52,46,57,54,46,100,97,88,30.11,30.05,30.00,10,5,0,16,4,,0.01,7,Fog,345
2012-10-31,59,57,55,57,56,55,100,96,88,30.05,30.01,29.99,10,6,1,15,7,20,0.11,8,Rain,174